Pagrindinis puslapis
METAR-TAF:

METAR-TAF

Oro uostai :

Mandalajus, Mianmaras

platuma: 21-59N, ilguma: 096-06E, Aukštis: 74 m

Dabartinis oras

Ataskaita buvo paskelbta 1 valandą ir 13 minutes, ne 22:30 UTC
Vėjas 10 kt iš Pietų
Temperatūra 26°C
Drėgmė 84%
Slėgis 1005 hPa
Matomumas: 6000 m
Išsisklaidę debesys ne aukštis 2000 ft

METAR: VYMD 252230Z 17010KT 6000 SCT020 26/23 Q1005(NOSIG)

Laikas: 06:13 (23:43 UTC)

Prognozė

Ataskaita buvo paskelbta 6 valandos ir 43 minutes, ne 17:00 UTC
Prognozė galioja nuo 25 metu 18 UTC su 26 metu 18 UTC
Vėjas 10 kt iš Pietų
Matomumas: 6000 m
Su prošvaistėmis ne aukštis 2000 ft
Mažai debesys ne aukštis 2500 ft, Liūtiniai kamuoliniai debesys.
Laikinai
nuo 25 metu 18 UTC su 25 metu 24 UTC
Vėjas 7 kt iš Pietų su gūsio iki 15 kt
Matomumas: 5000 m
Su prošvaistėmis ne aukštis 1800 ft
Mažai debesys ne aukštis 2000 ft, Liūtiniai kamuoliniai debesys.
Su prošvaistėmis ne aukštis 10000 ft
perkūnija, lietus

TAF: VYMD 251700Z 2518/2618 17010KT 6000 BKN020 FEW025CB TEMPO 2518/2524 18007G15KT 5000 -TSRA BKN018 FEW020CB BKN100

Orai ataskaitas ir orų prognozės (METAR, TAF).

turimą stotys yra geltonos ir raudonos taškus žemėlapyje.

Perkelti pele per norėdami pamatyti stoties vardą.

Tada spustelėkite, norėdami matyti oro stebėjimo ir prognozės.

Norėdami pakeisti žemėlapį: spustelėkite ant žalios mygtukų su juodo kryžiaus žemyn,; žalią mygtuką su brūkšneliu, jei norite nutolinti; arba žalių rodyklių gretimoms žemėlapius.


METAR-TAF: